Time;durP1;ratioP1;P1;durP2;ratioP2;P2;SDS_P1;SDS_P2;PMS_P1;PMS_P2;Temp;Humidity;BMP_temperature;BMP_pressure;BME280_temperature;BME280_humidity;BME280_pressure;Samples;Min_cycle;Max_cycle;Signal;HPM_P1;HPM_P2
2022/04/19 00:00:22;;;;;;;17.48;13.23;;;;;;;8.11;73.88;101419.41;5041459;28;20470;-62
2022/04/19 00:02:47;;;;;;;16.02;13.70;;;;;;;8.01;74.14;101412.44;5041399;28;20032;-62
2022/04/19 00:05:13;;;;;;;17.38;14.63;;;;;;;7.98;75.33;101406.50;5041433;28;20037;-62
2022/04/19 00:07:38;;;;;;;18.02;15.40;;;;;;;7.91;75.77;101406.47;5041797;28;20024;-62
2022/04/19 00:10:06;;;;;;;20.67;16.17;;;;;;;7.81;76.05;101411.44;5041855;28;20534;-62
2022/04/19 00:12:31;;;;;;;18.05;15.65;;;;;;;7.77;76.07;101405.50;5041289;28;20055;-62
2022/04/19 00:14:57;;;;;;;17.15;15.10;;;;;;;7.73;75.65;101406.94;5039314;28;20025;-62
2022/04/19 00:17:22;;;;;;;18.98;14.88;;;;;;;7.69;76.13;101399.34;5041543;28;20048;-62
2022/04/19 00:19:48;;;;;;;20.08;16.58;;;;;;;7.66;74.86;101397.84;5041387;28;20033;-62
2022/04/19 00:22:13;;;;;;;19.65;15.82;;;;;;;7.61;76.20;101405.81;5041022;28;20064;-62
2022/04/19 00:24:39;;;;;;;17.73;15.80;;;;;;;7.57;77.10;101409.97;5040820;28;20519;-62
2022/04/19 00:27:04;;;;;;;20.88;15.82;;;;;;;7.53;76.35;101405.94;5042474;28;20104;-62
2022/04/19 00:29:30;;;;;;;20.63;16.33;;;;;;;7.50;76.16;101406.31;5041448;28;20116;-62
2022/04/19 00:31:56;;;;;;;18.88;16.02;;;;;;;7.43;75.21;101400.81;5042344;28;20079;-62
2022/04/19 00:34:21;;;;;;;22.90;16.52;;;;;;;7.43;74.17;101402.69;5041566;28;20025;-62
2022/04/19 00:36:46;;;;;;;19.35;16.83;;;;;;;7.42;74.01;101393.66;5039741;28;20086;-62
2022/04/19 00:39:12;;;;;;;19.35;16.55;;;;;;;7.43;73.72;101398.06;5039787;28;20106;-62
2022/04/19 00:41:37;;;;;;;18.60;15.15;;;;;;;7.38;76.07;101407.91;5042756;28;20032;-62
2022/04/19 00:44:02;;;;;;;18.92;15.77;;;;;;;7.35;76.73;101400.09;5041232;28;20032;-62
2022/04/19 00:46:27;;;;;;;16.98;14.93;;;;;;;7.39;77.05;101407.69;5042050;28;20523;-62
2022/04/19 00:48:53;;;;;;;21.05;15.90;;;;;;;7.31;76.40;101407.84;5042345;28;20452;-62
2022/04/19 00:51:19;;;;;;;22.60;15.98;;;;;;;7.28;75.95;101403.59;5039758;28;20040;-62
2022/04/19 00:53:45;;;;;;;19.17;16.80;;;;;;;7.21;76.33;101402.72;5039995;28;20025;-62
2022/04/19 00:56:11;;;;;;;20.73;16.08;;;;;;;7.18;76.05;101399.50;5041460;28;20044;-62
2022/04/19 00:58:37;;;;;;;18.67;16.60;;;;;;;7.15;75.88;101403.50;5042907;28;20677;-62
2022/04/19 01:01:03;;;;;;;20.17;16.45;;;;;;;7.14;75.59;101400.94;5039757;28;20036;-62
2022/04/19 01:03:28;;;;;;;17.98;15.88;;;;;;;7.11;76.34;101394.00;5038373;28;20037;-62
2022/04/19 01:05:55;;;;;;;22.00;16.77;;;;;;;7.13;75.89;101397.34;5040673;28;20070;-62
2022/04/19 01:08:22;;;;;;;20.75;18.20;;;;;;;7.10;75.88;101395.03;5041150;28;20257;-62
2022/04/19 01:10:48;;;;;;;21.27;17.90;;;;;;;7.03;76.43;101397.69;5040326;28;20035;-62
2022/04/19 01:13:17;;;;;;;21.20;18.42;;;;;;;7.01;77.52;101401.66;5040199;28;20388;-61
2022/04/19 01:15:48;;;;;;;22.55;18.48;;;;;;;7.01;77.57;101401.66;5041151;28;20036;-61
2022/04/19 01:18:14;;;;;;;22.73;19.42;;;;;;;6.98;76.82;101402.03;5041098;28;20021;-62
2022/04/19 01:20:41;;;;;;;23.63;19.15;;;;;;;6.97;77.27;101406.66;5040219;28;20025;-62
2022/04/19 01:23:07;;;;;;;23.98;19.75;;;;;;;6.93;77.37;101401.75;5038732;28;20071;-61
2022/04/19 01:25:33;;;;;;;21.50;17.85;;;;;;;6.88;78.22;101393.31;5043345;28;20033;-62
2022/04/19 01:27:58;;;;;;;22.85;20.15;;;;;;;6.81;78.60;101390.50;5045717;28;20021;-62
2022/04/19 01:30:24;;;;;;;22.88;20.20;;;;;;;6.76;78.87;101396.56;5044016;28;20122;-62
2022/04/19 01:32:49;;;;;;;23.55;20.05;;;;;;;6.69;78.38;101389.31;5044031;28;20029;-62
2022/04/19 01:35:16;;;;;;;24.60;20.30;;;;;;;6.64;78.57;101381.72;5043531;28;20855;-62
2022/04/19 01:37:44;;;;;;;22.13;19.73;;;;;;;6.63;78.83;101384.63;5044468;28;20021;-62
2022/04/19 01:40:16;;;;;;;24.95;20.45;;;;;;;6.66;78.05;101385.09;5043561;28;20469;-62
2022/04/19 01:42:43;;;;;;;22.25;19.63;;;;;;;6.63;78.90;101382.72;5043686;28;20221;-62
2022/04/19 01:45:09;;;;;;;22.90;20.53;;;;;;;6.61;78.59;101373.91;5045874;28;20574;-62
2022/04/19 01:47:34;;;;;;;23.55;20.67;;;;;;;6.60;78.26;101374.09;5044423;28;20036;-62
2022/04/19 01:49:59;;;;;;;23.33;19.42;;;;;;;6.57;78.33;101374.47;5041767;28;20037;-62
2022/04/19 01:52:25;;;;;;;22.05;19.70;;;;;;;6.55;78.07;101380.13;5043272;28;20044;-62
2022/04/19 01:54:51;;;;;;;25.05;20.30;;;;;;;6.55;78.49;101379.28;5043603;28;20067;-62
2022/04/19 01:57:16;;;;;;;24.02;20.38;;;;;;;6.55;79.27;101374.69;5045084;28;20029;-62
2022/04/19 01:59:41;;;;;;;25.33;20.33;;;;;;;6.52;78.45;101372.31;5044584;28;20035;-62
2022/04/19 02:02:07;;;;;;;21.45;19.10;;;;;;;6.49;78.15;101376.28;5042550;28;20082;-62
2022/04/19 02:04:32;;;;;;;22.42;19.50;;;;;;;6.49;78.65;101375.44;5044968;28;20372;-62
2022/04/19 02:06:57;;;;;;;23.40;20.73;;;;;;;6.52;79.06;101377.78;5043355;28;20073;-62
2022/04/19 02:09:22;;;;;;;25.63;20.17;;;;;;;6.52;77.90;101377.78;5043493;28;20032;-62
2022/04/19 02:11:48;;;;;;;25.02;21.13;;;;;;;6.50;77.80;101375.25;5042265;28;20024;-62
2022/04/19 02:14:13;;;;;;;25.80;20.33;;;;;;;6.53;78.28;101374.00;5043171;28;20029;-62
2022/04/19 02:16:38;;;;;;;24.48;20.73;;;;;;;6.54;78.44;101375.72;5043699;28;20451;-62
2022/04/19 02:19:04;;;;;;;24.90;20.20;;;;;;;6.52;77.59;101372.31;5042674;28;20029;-62
2022/04/19 02:21:30;;;;;;;22.27;19.77;;;;;;;6.50;78.18;101377.13;5042080;28;20033;-62
2022/04/19 02:23:55;;;;;;;24.45;20.75;;;;;;;6.47;77.97;101369.31;5043345;28;20586;-62
2022/04/19 02:26:23;;;;;;;23.50;20.00;;;;;;;6.43;77.89;101368.00;5043373;28;20083;-62
2022/04/19 02:28:49;;;;;;;25.70;20.42;;;;;;;6.39;77.63;101369.44;5043794;28;20029;-61
2022/04/19 02:31:14;;;;;;;24.48;20.75;;;;;;;6.38;77.37;101370.44;5042075;28;20043;-62
2022/04/19 02:33:40;;;;;;;23.80;20.00;;;;;;;6.37;77.80;101368.78;5043939;28;20476;-62
2022/04/19 02:36:05;;;;;;;23.40;20.50;;;;;;;6.35;77.89;101366.25;5043693;28;20091;-62
2022/04/19 02:38:30;;;;;;;22.73;19.92;;;;;;;6.29;77.56;101367.00;5042207;28;20452;-62
2022/04/19 02:40:55;;;;;;;23.63;19.70;;;;;;;6.30;77.87;101356.94;5042910;28;20123;-62
2022/04/19 02:43:21;;;;;;;23.13;19.75;;;;;;;6.27;78.33;101360.03;5042505;28;20051;-62
2022/04/19 02:45:46;;;;;;;21.30;18.95;;;;;;;6.23;78.60;101363.16;5043214;28;20044;-62
2022/04/19 02:48:11;;;;;;;23.85;19.73;;;;;;;6.20;78.81;101360.78;5044228;28;20143;-62
2022/04/19 02:50:43;;;;;;;21.70;19.38;;;;;;;6.18;79.98;101362.88;5042722;28;20049;-62
2022/04/19 02:53:08;;;;;;;22.48;18.80;;;;;;;6.11;80.21;101366.53;5041614;28;20031;-62
2022/04/19 02:55:33;;;;;;;24.88;19.05;;;;;;;6.11;80.98;101363.81;5042947;28;20049;-62
2022/04/19 02:57:58;;;;;;;21.67;19.20;;;;;;;6.06;81.03;101367.09;5042645;28;20343;-62
2022/04/19 03:00:24;;;;;;;24.73;19.90;;;;;;;6.06;81.17;101366.25;5042219;22;20064;-62
2022/04/19 03:02:50;;;;;;;24.42;19.15;;;;;;;6.04;81.61;101358.28;5024518;28;20126;-62
2022/04/19 03:05:19;;;;;;;24.88;19.13;;;;;;;6.03;81.75;101361.16;5023898;28;20183;-61
2022/04/19 03:07:45;;;;;;;22.80;20.23;;;;;;;5.98;81.83;101359.88;5023982;28;20032;-62
2022/04/19 03:10:11;;;;;;;24.30;19.92;;;;;;;5.96;82.10;101355.63;5020625;28;20096;-62
2022/04/19 03:12:36;;;;;;;23.80;18.98;;;;;;;5.90;82.19;101359.09;5023699;28;20120;-62
2022/04/19 03:15:02;;;;;;;22.05;18.95;;;;;;;5.89;82.42;101355.50;5009942;28;20484;-62
2022/04/19 03:17:28;;;;;;;22.15;18.70;;;;;;;5.88;82.31;101352.94;5013296;28;20029;-62
2022/04/19 03:19:53;;;;;;;21.60;18.73;;;;;;;5.82;82.33;101350.97;5022670;28;20036;-62
2022/04/19 03:22:19;;;;;;;22.60;18.52;;;;;;;5.79;82.79;101354.09;5022321;28;20041;-62
2022/04/19 03:27:43;;;;;;;22.35;18.00;;;;;;;5.71;82.52;101353.13;5021832;28;20123;-62
2022/04/19 03:30:13;;;;;;;22.40;19.40;;;;;;;5.70;82.56;101351.44;5023837;28;20029;-62
2022/04/19 03:32:39;;;;;;;21.23;18.63;;;;;;;5.68;82.64;101352.69;5013631;28;20088;-62
2022/04/19 03:35:04;;;;;;;24.13;19.35;;;;;;;5.66;82.20;101350.13;5003870;28;20046;-62
2022/04/19 03:37:30;;;;;;;20.67;17.30;;;;;;;5.63;82.57;101345.06;5013286;28;20128;-62
2022/04/19 03:39:55;;;;;;;20.75;18.10;;;;;;;5.63;82.14;101346.94;5018675;28;20028;-62
2022/04/19 03:42:21;;;;;;;20.48;18.27;;;;;;;5.62;81.79;101354.25;5004600;28;20041;-62
2022/04/19 03:44:46;;;;;;;23.38;19.40;;;;;;;5.60;81.91;101350.03;5009105;28;20021;-61
2022/04/19 03:47:12;;;;;;;21.27;18.88;;;;;;;5.58;81.84;101350.22;5010060;28;20034;-62
2022/04/19 03:49:39;;;;;;;25.05;18.45;;;;;;;5.53;82.46;101354.53;5021808;28;20041;-62
2022/04/19 03:52:05;;;;;;;23.27;19.67;;;;;;;5.48;82.49;101357.81;5022836;28;20025;-62
2022/04/19 03:54:34;;;;;;;22.02;19.27;;;;;;;5.49;82.54;101354.06;5021573;28;20120;-62
2022/04/19 03:56:59;;;;;;;;;;;;;;;5.61;80.32;101357.16;5018389;28;20021;-62
2022/04/19 03:59:24;;;;;;;24.07;18.70;;;;;;;5.50;80.66;101353.03;5021512;28;20347;-62
2022/04/19 04:01:50;;;;;;;24.13;18.33;;;;;;;5.44;81.47;101354.59;5020964;28;20850;-62
2022/04/19 04:04:15;;;;;;;21.52;19.10;;;;;;;5.40;82.72;101357.88;5021640;28;20053;-62
2022/04/19 04:06:40;;;;;;;22.92;19.60;;;;;;;5.36;83.43;101356.56;5021926;28;20028;-62
2022/04/19 04:09:05;;;;;;;23.65;20.23;;;;;;;5.32;83.95;101357.94;5022012;28;20076;-62
2022/04/19 04:11:32;;;;;;;25.20;20.33;;;;;;;5.28;84.15;101356.66;5022837;28;20086;-62
2022/04/19 04:13:57;;;;;;;23.98;21.38;;;;;;;5.29;84.48;101358.34;5022256;28;20045;-62
2022/04/19 04:16:22;;;;;;;24.23;20.25;;;;;;;5.25;84.39;101357.00;5021841;28;20159;-62
2022/04/19 04:18:48;;;;;;;25.25;21.10;;;;;;;5.23;84.42;101350.91;5018842;28;20399;-62
2022/04/19 04:21:13;;;;;;;21.83;19.38;;;;;;;5.20;84.33;101354.81;5003024;28;20041;-62
2022/04/19 04:23:38;;;;;;;25.27;20.75;;;;;;;5.20;84.54;101361.13;5001514;28;20058;-62
2022/04/19 04:26:03;;;;;;;25.80;21.10;;;;;;;5.23;83.90;101356.34;5002165;28;20042;-62
2022/04/19 04:28:29;;;;;;;26.00;21.60;;;;;;;5.20;83.76;101365.72;5002300;28;20036;-62
2022/04/19 04:30:54;;;;;;;25.63;22.20;;;;;;;5.20;83.54;101361.13;5002115;28;20026;-62
2022/04/19 04:33:19;;;;;;;23.90;21.17;;;;;;;5.19;82.93;101362.16;5002386;28;20026;-62
2022/04/19 04:35:45;;;;;;;28.25;21.75;;;;;;;5.20;83.05;101365.72;5001650;28;20018;-62
2022/04/19 04:38:10;;;;;;;28.73;21.50;;;;;;;5.18;82.84;101365.91;5001549;28;20449;-61
2022/04/19 04:40:36;;;;;;;27.35;22.42;;;;;;;5.23;82.54;101368.09;5012627;28;20029;-62
2022/04/19 04:43:01;;;;;;;28.27;21.95;;;;;;;5.23;81.98;101375.41;5019323;28;20125;-62
2022/04/19 04:45:26;;;;;;;27.55;22.00;;;;;;;5.24;81.92;101372.50;5020635;28;20441;-62
2022/04/19 04:50:36;;;;;;;26.25;20.55;;;;;;;5.20;82.19;101371.16;5020856;28;20041;-62
2022/04/19 04:53:01;;;;;;;28.10;22.55;;;;;;;5.20;82.70;101372.00;5020824;28;20030;-62
2022/04/19 04:55:26;;;;;;;29.65;22.20;;;;;;;5.24;82.15;101374.38;5019424;28;20124;-62
2022/04/19 04:57:56;;;;;;;28.30;22.05;;;;;;;5.30;82.21;101381.81;5020125;28;20029;-62
2022/04/19 05:00:22;;;;;;;27.98;22.02;;;;;;;5.37;82.65;101371.84;5021438;28;20115;-62
2022/04/19 05:02:47;;;;;;;26.48;22.83;;;;;;;5.39;81.60;101378.84;5006550;28;20045;-62
2022/04/19 05:05:12;;;;;;;26.10;21.90;;;;;;;5.42;82.04;101381.19;5023780;28;20032;-62
2022/04/19 05:07:38;;;;;;;29.27;22.20;;;;;;;5.45;82.38;101374.53;5023577;28;20033;-62
2022/04/19 05:10:04;;;;;;;31.27;23.58;;;;;;;5.49;82.30;101381.31;5024632;28;20460;-62
2022/04/19 05:12:29;;;;;;;27.63;21.55;;;;;;;5.48;82.64;101379.63;5022445;28;20042;-62
2022/04/19 05:14:55;;;;;;;27.85;23.02;;;;;;;5.52;81.87;101380.06;5024778;28;20348;-62
2022/04/19 05:17:20;;;;;;;28.13;22.58;;;;;;;5.56;81.74;101378.69;5024617;28;20103;-62
2022/04/19 05:19:45;;;;;;;27.83;21.70;;;;;;;5.64;82.06;101381.34;5024653;28;20028;-62
2022/04/19 05:22:11;;;;;;;25.70;21.23;;;;;;;5.66;81.65;101376.53;5023792;28;20025;-62
2022/04/19 05:24:36;;;;;;;32.08;21.73;;;;;;;5.69;81.15;101377.00;5023642;28;20024;-62
2022/04/19 05:27:01;;;;;;;33.08;23.65;;;;;;;5.80;80.68;101377.59;5024384;28;20108;-62
2022/04/19 05:29:27;;;;;;;28.20;22.92;;;;;;;5.88;80.54;101380.22;5024112;28;20457;-61
2022/04/19 05:31:52;;;;;;;27.15;22.35;;;;;;;5.93;80.84;101384.13;5023482;28;20022;-62
2022/04/19 05:34:17;;;;;;;28.25;21.98;;;;;;;6.03;79.48;101383.81;5024347;28;20120;-62
2022/04/19 05:36:42;;;;;;;27.13;21.85;;;;;;;6.05;80.11;101376.31;5023650;28;20028;-62
2022/04/19 05:39:08;;;;;;;27.98;20.35;;;;;;;6.26;76.85;101371.97;5023540;28;20253;-62
2022/04/19 05:41:35;;;;;;;26.45;19.58;;;;;;;6.48;73.40;101377.31;5023583;28;20425;-62
2022/04/19 05:44:00;;;;;;;26.20;19.38;;;;;;;6.67;73.03;101375.84;5024143;28;20013;-62
2022/04/19 05:46:25;;;;;;;28.58;20.55;;;;;;;6.82;74.21;101380.44;5023928;28;20446;-61
2022/04/19 05:48:50;;;;;;;24.77;18.88;;;;;;;6.98;70.49;101369.25;5023853;28;20191;-62
2022/04/19 05:51:16;;;;;;;26.50;20.10;;;;;;;7.05;74.06;101367.47;5023218;28;20030;-62
2022/04/19 05:53:41;;;;;;;26.20;18.33;;;;;;;7.32;69.09;101379.47;5023233;28;20035;-62
2022/04/19 05:56:07;;;;;;;27.13;19.30;;;;;;;7.46;69.94;101374.97;5024550;28;20014;-62
2022/04/19 05:58:32;;;;;;;28.75;19.73;;;;;;;7.54;69.54;101372.94;5023352;28;20025;-62
2022/04/19 06:00:57;;;;;;;25.98;19.17;;;;;;;7.69;67.46;101367.38;5023541;28;20053;-62
2022/04/19 06:06:06;;;;;;;25.60;18.38;;;;;;;7.93;66.43;101374.28;5023837;28;20036;-62
2022/04/19 06:08:32;;;;;;;26.55;19.55;;;;;;;8.03;67.96;101377.50;5023129;28;20025;-62
2022/04/19 06:10:57;;;;;;;26.02;18.90;;;;;;;8.14;67.95;101378.81;5024052;28;20496;-62
2022/04/19 06:13:23;;;;;;;27.42;20.02;;;;;;;8.20;69.65;101382.63;5023466;28;20029;-62
2022/04/19 06:15:48;;;;;;;27.98;20.50;;;;;;;8.23;70.46;101391.28;5023931;28;20022;-62
2022/04/19 06:18:13;;;;;;;28.95;20.77;;;;;;;8.30;71.72;101392.16;5024497;28;20100;-62
2022/04/19 06:20:40;;;;;;;26.70;19.83;;;;;;;8.40;70.97;101394.56;5023939;28;20111;-62
2022/04/19 06:23:06;;;;;;;27.38;20.08;;;;;;;8.58;67.93;101396.75;5023769;28;20427;-62
2022/04/19 06:25:31;;;;;;;26.67;18.77;;;;;;;8.76;66.10;101388.81;5024106;28;20030;-62
2022/04/19 06:27:57;;;;;;;30.38;20.48;;;;;;;8.91;65.46;101390.53;5024575;28;20103;-62
2022/04/19 06:30:24;;;;;;;27.42;18.45;;;;;;;9.11;64.62;101385.97;5023886;28;20080;-62
2022/04/19 06:32:50;;;;;;;29.10;20.30;;;;;;;9.21;66.43;101399.25;5024163;28;20040;-62
2022/04/19 06:35:15;;;;;;;30.85;21.27;;;;;;;9.37;65.68;101393.38;5023885;28;20033;-62
2022/04/19 06:37:40;;;;;;;27.45;20.65;;;;;;;9.57;64.27;101387.91;5022912;28;20044;-62
2022/04/19 06:40:06;;;;;;;28.35;19.58;;;;;;;9.72;65.57;101387.69;5024674;28;20045;-62
2022/04/19 06:42:32;;;;;;;28.60;20.17;;;;;;;9.95;64.89;101387.25;5024026;28;20104;-62
2022/04/19 06:44:57;;;;;;;34.80;21.60;;;;;;;10.47;63.89;101390.94;5024398;28;20056;-62
2022/04/19 06:47:25;;;;;;;29.73;18.88;;;;;;;10.90;59.86;101392.03;5023274;28;20029;-62
2022/04/19 06:49:52;;;;;;;28.23;19.90;;;;;;;11.36;58.99;101385.41;5024017;28;20431;-63
2022/04/19 06:52:18;;;;;;;25.20;18.92;;;;;;;11.65;58.36;101388.53;5020940;28;20030;-63
2022/04/19 06:54:43;;;;;;;29.20;18.70;;;;;;;11.81;58.62;101382.50;5023555;28;20052;-63
2022/04/19 06:57:09;;;;;;;29.80;19.85;;;;;;;12.09;56.63;101383.94;5024195;28;20083;-63
2022/04/19 06:59:34;;;;;;;26.90;18.23;;;;;;;12.32;55.02;101381.38;5023604;28;20025;-63
2022/04/19 07:01:59;;;;;;;28.52;18.30;;;;;;;12.69;54.21;101387.69;5023860;28;20475;-63
2022/04/19 07:04:24;;;;;;;27.83;18.80;;;;;;;13.23;53.65;101383.16;5022852;28;20033;-63
2022/04/19 07:06:50;;;;;;;26.60;18.25;;;;;;;13.81;50.48;101389.84;5023408;28;20033;-63
2022/04/19 07:09:15;;;;;;;28.45;18.98;;;;;;;13.93;49.25;101398.13;5022190;28;20690;-63
2022/04/19 07:11:41;;;;;;;25.77;17.42;;;;;;;13.69;48.42;101400.06;5023439;28;20163;-64
2022/04/19 07:14:06;;;;;;;26.58;15.13;;;;;;;13.74;48.73;101400.19;5023971;28;20029;-63
2022/04/19 07:16:32;;;;;;;25.92;17.77;;;;;;;13.65;48.63;101396.09;5022481;28;20697;-63
2022/04/19 07:18:58;;;;;;;26.70;17.50;;;;;;;13.66;49.11;101403.28;5023375;28;20083;-63
2022/04/19 07:26:51;;;;;;;23.02;13.40;;;;;;;14.88;44.39;101396.94;5023495;28;20175;-63
2022/04/19 07:29:20;;;;;;;27.13;17.13;;;;;;;14.68;45.89;101403.72;5022875;28;20423;-64
2022/04/19 07:31:47;;;;;;;24.45;15.70;;;;;;;14.56;45.51;101402.09;5023251;28;20033;-63
2022/04/19 07:34:13;;;;;;;26.50;15.73;;;;;;;14.41;44.70;101400.63;5022474;28;20017;-63
2022/04/19 07:36:40;;;;;;;29.05;17.30;;;;;;;14.43;45.16;101406.75;5022628;28;20032;-63
2022/04/19 07:39:06;;;;;;;30.05;17.33;;;;;;;14.59;46.81;101409.88;5022581;28;20017;-62
2022/04/19 07:41:32;;;;;;;31.35;16.77;;;;;;;14.68;45.82;101412.03;5021706;28;20460;-64
2022/04/19 07:43:57;;;;;;;24.95;16.05;;;;;;;14.73;47.36;101411.28;5022322;28;20025;-63
2022/04/19 07:46:22;;;;;;;24.15;14.73;;;;;;;14.89;45.94;101410.50;5021803;28;20164;-64
2022/04/19 07:48:49;;;;;;;25.98;17.42;;;;;;;14.95;47.95;101411.44;5022998;28;20068;-64
2022/04/19 07:51:15;;;;;;;30.08;15.77;;;;;;;15.14;45.51;101412.94;5021631;28;20021;-63
2022/04/19 07:53:41;;;;;;;26.30;16.33;;;;;;;15.33;45.95;101416.34;5022203;28;20370;-63
2022/04/19 07:56:06;;;;;;;22.52;13.07;;;;;;;15.40;43.11;101405.13;5022722;28;20057;-64
2022/04/19 07:58:32;;;;;;;25.20;14.18;;;;;;;15.60;44.85;101404.63;5022212;28;20088;-64
2022/04/19 08:00:57;;;;;;;23.38;15.02;;;;;;;15.72;45.35;101409.06;5022001;28;20045;-64
2022/04/19 08:03:22;;;;;;;20.73;11.82;;;;;;;15.68;43.13;101409.81;5021609;28;20629;-64
2022/04/19 08:05:50;;;;;;;19.23;11.48;;;;;;;15.56;40.97;101410.69;5022174;28;20021;-64
2022/04/19 08:08:17;;;;;;;19.10;11.02;;;;;;;15.51;41.06;101407.84;5020791;28;20116;-64
2022/04/19 08:10:42;;;;;;;19.80;11.48;;;;;;;15.46;40.96;101413.28;5022663;28;20025;-64
2022/04/19 08:13:07;;;;;;;18.88;10.95;;;;;;;15.42;40.30;101408.50;5022980;28;20061;-65
2022/04/19 08:15:32;;;;;;;21.27;11.85;;;;;;;15.47;40.05;101411.34;5022008;28;20044;-65
2022/04/19 08:17:58;;;;;;;18.60;11.50;;;;;;;15.43;42.50;101416.53;5022072;28;20018;-65
2022/04/19 08:20:24;;;;;;;17.60;11.70;;;;;;;15.55;43.22;101413.69;5021429;28;20052;-64
2022/04/19 08:22:49;;;;;;;19.23;10.50;;;;;;;15.65;40.85;101413.06;5021068;28;20056;-65
2022/04/19 08:25:15;;;;;;;17.17;9.77;;;;;;;15.79;41.24;101406.13;5020707;28;20053;-65
2022/04/19 08:27:44;;;;;;;17.23;10.73;;;;;;;15.88;40.96;101407.38;5022432;28;20031;-65
2022/04/19 08:30:09;;;;;;;17.65;10.93;;;;;;;15.89;40.32;101397.13;5022704;28;20025;-64
2022/04/19 08:32:36;;;;;;;17.13;9.75;;;;;;;16.06;40.90;101401.56;5022275;28;20034;-65
2022/04/19 08:35:01;;;;;;;18.38;9.38;;;;;;;16.18;39.91;101392.31;5023869;28;20464;-65
2022/04/19 08:37:30;;;;;;;18.38;9.73;;;;;;;16.26;40.50;101398.25;5024629;28;20025;-65
2022/04/19 08:39:56;;;;;;;19.02;10.82;;;;;;;16.30;39.44;101398.59;5025395;28;20025;-65
2022/04/19 08:42:22;;;;;;;17.70;10.70;;;;;;;16.44;39.16;101394.34;5026110;28;20036;-64
2022/04/19 08:44:47;;;;;;;15.88;9.13;;;;;;;16.65;39.22;101401.00;5026207;28;20033;-65
2022/04/19 08:47:14;;;;;;;13.15;6.80;;;;;;;16.85;37.15;101401.28;5025550;28;20586;-65
2022/04/19 08:49:42;;;;;;;15.45;8.48;;;;;;;16.78;36.63;101413.69;5025886;28;20088;-64
2022/04/19 08:52:08;;;;;;;15.20;7.60;;;;;;;17.08;38.09;101405.72;5025279;28;20029;-64
2022/04/19 08:57:29;;;;;;;15.77;8.73;;;;;;;18.03;35.47;101400.50;5025798;28;20036;-64
2022/04/19 08:59:55;;;;;;;15.07;7.88;;;;;;;18.08;35.57;101396.91;5025385;28;21026;-64
2022/04/19 09:02:23;;;;;;;16.23;8.43;;;;;;;19.12;33.66;101398.84;5025504;28;20032;-64
2022/04/19 09:04:50;;;;;;;12.55;6.47;;;;;;;20.12;32.28;101397.50;5025939;28;20696;-64
2022/04/19 09:07:16;;;;;;;15.00;8.77;;;;;;;20.45;32.65;101394.09;5023963;28;20105;-65
2022/04/19 09:09:41;;;;;;;13.93;8.20;;;;;;;21.51;31.60;101391.09;5024782;28;20472;-65
2022/04/19 09:12:08;;;;;;;13.30;7.25;;;;;;;21.12;31.64;101396.63;5025637;28;20029;-65
2022/04/19 09:14:34;;;;;;;15.40;7.63;;;;;;;22.24;31.32;101392.97;5025464;28;20022;-65
2022/04/19 09:17:10;;;;;;;15.98;8.40;;;;;;;23.22;29.27;101388.72;5024991;28;20300;-66
2022/04/19 09:19:37;;;;;;;16.35;7.80;;;;;;;23.60;27.67;101388.69;5025648;28;20084;-66
2022/04/19 09:22:03;;;;;;;13.25;6.28;;;;;;;23.33;26.73;101382.97;5024397;28;20045;-66
2022/04/19 09:24:28;;;;;;;13.45;6.90;;;;;;;22.30;26.59;101377.81;5023862;28;20522;-65
2022/04/19 09:26:54;;;;;;;14.77;7.93;;;;;;;22.32;29.00;101388.72;5024611;28;20392;-66
2022/04/19 09:29:26;;;;;;;13.18;6.68;;;;;;;21.96;28.54;101383.47;5024901;28;20030;-67
2022/04/19 09:31:54;;;;;;;11.88;6.03;;;;;;;22.36;27.80;101373.84;5024643;28;20025;-66
2022/04/19 09:34:28;;;;;;;12.50;7.55;;;;;;;21.81;27.89;101378.00;5024493;28;20100;-66
2022/04/19 09:37:06;;;;;;;10.65;5.20;;;;;;;21.93;28.15;101376.47;5024545;28;20057;-66
2022/04/19 09:39:34;;;;;;;14.35;6.55;;;;;;;22.41;28.08;101364.56;5024673;28;20033;-66
2022/04/19 09:42:01;;;;;;;12.15;6.40;;;;;;;22.95;27.68;101371.72;5025306;28;20128;-66
2022/04/19 09:44:29;;;;;;;13.10;6.15;;;;;;;23.36;26.88;101365.50;5024381;28;20099;-67
2022/04/19 09:47:04;;;;;;;12.03;5.57;;;;;;;24.27;25.82;101372.34;5024298;28;20371;-67
2022/04/19 09:49:49;;;;;;;10.98;5.53;;;;;;;24.87;25.51;101362.19;5024595;28;20029;-66
2022/04/19 09:52:20;;;;;;;12.43;6.50;;;;;;;23.57;25.18;101372.47;5023274;28;20124;-65
2022/04/19 09:54:59;;;;;;;11.30;6.20;;;;;;;23.32;26.12;101359.69;5024657;28;20029;-65
2022/04/19 09:57:25;;;;;;;12.27;6.53;;;;;;;23.37;25.75;101359.63;5024465;28;20395;-62
2022/04/19 09:59:52;;;;;;;9.25;4.43;;;;;;;22.41;25.49;101367.34;5023893;28;20037;-63
2022/04/19 10:10:31;;;;;;;12.45;6.22;;;;;;;26.25;22.63;101360.47;5023063;28;20084;-64
2022/04/19 10:12:57;;;;;;;12.13;6.32;;;;;;;26.98;21.99;101360.91;5024958;28;20088;-64
2022/04/19 10:15:23;;;;;;;9.98;5.45;;;;;;;25.84;22.13;101364.38;5024303;28;20033;-64
2022/04/19 10:17:49;;;;;;;13.60;6.20;;;;;;;25.91;23.38;101354.66;5024472;28;20488;-64
2022/04/19 10:20:15;;;;;;;9.77;5.25;;;;;;;26.81;22.63;101353.22;5023501;28;20022;-64
2022/04/19 10:22:48;;;;;;;10.60;5.55;;;;;;;26.70;22.50;101363.16;5023688;28;20018;-64
2022/04/19 10:25:14;;;;;;;12.98;6.43;;;;;;;27.13;21.81;101353.97;5024234;28;20025;-65
2022/04/19 10:27:40;;;;;;;12.02;6.35;;;;;;;26.68;21.73;101353.38;5024772;28;20014;-64
2022/04/19 10:30:06;;;;;;;11.63;6.20;;;;;;;27.42;22.03;101354.16;5024560;28;20064;-65
2022/04/19 10:32:33;;;;;;;10.35;5.88;;;;;;;27.76;21.88;101351.66;5023782;28;20083;-64
2022/04/19 10:35:00;;;;;;;12.43;6.50;;;;;;;27.76;20.95;101355.28;5024146;28;20093;-64
2022/04/19 10:37:26;;;;;;;11.85;5.90;;;;;;;28.56;20.05;101357.53;5022876;28;20087;-64
2022/04/19 10:40:05;;;;;;;14.15;6.85;;;;;;;28.55;20.89;101351.06;5023811;28;20159;-65
2022/04/19 10:42:32;;;;;;;11.88;6.13;;;;;;;28.43;19.34;101353.78;5023778;28;20017;-64
2022/04/19 10:45:17;;;;;;;11.75;6.28;;;;;;;29.35;18.67;101359.53;5000334;28;20029;-64
2022/04/19 10:47:53;;;;;;;13.73;6.50;;;;;;;29.39;19.15;101349.16;5008376;28;20025;-64
2022/04/19 10:50:29;;;;;;;12.68;6.85;;;;;;;29.53;20.20;101336.72;5022615;28;20129;-64
2022/04/19 10:53:05;;;;;;;13.23;7.20;;;;;;;29.25;20.65;101337.31;5022686;28;20021;-64
2022/04/19 10:55:31;;;;;;;11.90;5.05;;;;;;;28.04;19.99;101333.16;5022435;28;20040;-64
2022/04/19 10:58:16;;;;;;;11.02;5.05;;;;;;;26.65;22.38;101344.41;5022168;28;20037;-64
2022/04/19 11:00:46;;;;;;;14.30;6.75;;;;;;;26.80;22.05;101339.47;5023331;28;20103;-64
2022/04/19 11:03:17;;;;;;;14.00;6.70;;;;;;;27.75;21.54;101330.22;5023837;28;20068;-64
2022/04/19 11:05:51;;;;;;;13.07;6.80;;;;;;;28.44;20.30;101333.69;5022622;28;20057;-64
2022/04/19 11:08:25;;;;;;;16.73;7.18;;;;;;;27.76;20.40;101329.88;5021851;28;20021;-63
2022/04/19 11:10:56;;;;;;;13.13;7.22;;;;;;;26.45;21.38;101324.44;5022703;28;20025;-63
2022/04/19 11:13:22;;;;;;;14.15;7.53;;;;;;;25.45;24.95;101325.72;5023372;28;20039;-64
2022/04/19 11:16:08;;;;;;;14.80;8.05;;;;;;;25.22;23.86;101330.47;5022848;28;20029;-66
2022/04/19 11:18:39;;;;;;;18.52;7.90;;;;;;;24.85;26.43;101323.16;5022637;28;20038;-65
2022/04/19 11:21:12;;;;;;;16.55;8.10;;;;;;;23.93;25.31;101315.78;5023398;28;20033;-65
2022/04/19 11:23:48;;;;;;;18.05;8.13;;;;;;;23.13;28.84;101320.47;5022356;28;20017;-66
2022/04/19 11:26:40;;;;;;;15.65;7.60;;;;;;;23.04;28.23;101316.69;5022369;28;20054;-66
2022/04/19 11:29:08;;;;;;;17.65;8.30;;;;;;;22.66;28.00;101310.22;5023595;28;20400;-65
2022/04/19 11:31:56;;;;;;;13.52;7.32;;;;;;;22.24;27.50;101314.63;5022454;28;20033;-65
2022/04/19 11:34:23;;;;;;;20.15;8.82;;;;;;;21.55;28.76;101308.34;5022105;28;20034;-67
2022/04/19 11:36:48;;;;;;;15.70;8.50;;;;;;;21.75;29.15;101312.91;5020360;28;20017;-65
2022/04/19 11:47:50;;;;;;;14.32;6.35;;;;;;;21.01;30.17;101314.03;5013638;28;20041;-66